Time;durP1;ratioP1;P1;durP2;ratioP2;P2;SDS_P1;SDS_P2;PMS_P1;PMS_P2;Temp;Humidity;BMP_temperature;BMP_pressure;BME280_temperature;BME280_humidity;BME280_pressure;Samples;Min_cycle;Max_cycle;Signal;HPM_P1;HPM_P2
2022/03/26 00:00:21;;;;;;;37.42;11.27;;;9.20;99.90;;;;;;5013508;28;20393;-33
2022/03/26 00:02:48;;;;;;;20.90;8.80;;;9.20;99.90;;;;;;5013560;28;20481;-30
2022/03/26 00:05:15;;;;;;;30.50;10.75;;;9.10;99.90;;;;;;5013290;28;20029;-37
2022/03/26 00:07:40;;;;;;;25.27;10.55;;;9.10;99.90;;;;;;5013767;28;20052;-40
2022/03/26 00:10:07;;;;;;;24.50;10.15;;;9.10;99.90;;;;;;5012821;28;20022;-37
2022/03/26 00:12:33;;;;;;;28.90;9.95;;;9.00;99.90;;;;;;5008478;28;20018;-37
2022/03/26 00:14:58;;;;;;;24.00;11.13;;;9.00;99.90;;;;;;4992893;28;20056;-35
2022/03/26 00:17:25;;;;;;;31.80;11.40;;;8.90;99.90;;;;;;5013065;28;20427;-38
2022/03/26 00:19:51;;;;;;;34.47;11.48;;;8.90;99.90;;;;;;5026117;28;20025;-38
2022/03/26 00:22:17;;;;;;;32.50;11.68;;;8.90;99.90;;;;;;4994092;28;20073;-35
2022/03/26 00:24:42;;;;;;;27.67;10.80;;;8.90;99.90;;;;;;5016268;28;20030;-39
2022/03/26 00:27:08;;;;;;;27.33;12.07;;;8.90;99.90;;;;;;5012687;28;20022;-28
2022/03/26 00:29:34;;;;;;;28.48;10.68;;;8.90;99.90;;;;;;5018987;28;20028;-32
2022/03/26 00:31:59;;;;;;;30.10;11.90;;;8.90;99.90;;;;;;5022039;28;20056;-32
2022/03/26 00:34:25;;;;;;;29.88;11.00;;;8.90;99.90;;;;;;5018405;28;20469;-37
2022/03/26 00:36:51;;;;;;;31.23;12.18;;;8.80;99.90;;;;;;5009969;28;20060;-32
2022/03/26 00:39:16;;;;;;;28.98;11.63;;;8.80;99.90;;;;;;5013071;28;20356;-30
2022/03/26 00:41:42;;;;;;;31.70;10.38;;;8.90;99.90;;;;;;5012790;28;20096;-34
2022/03/26 00:44:07;;;;;;;23.85;10.98;;;8.80;99.90;;;;;;5012776;28;20034;-32
2022/03/26 00:46:33;;;;;;;31.40;12.38;;;8.80;99.90;;;;;;5012936;28;20022;-33
2022/03/26 00:48:59;;;;;;;33.15;11.75;;;8.70;99.90;;;;;;5011854;28;20029;-32
2022/03/26 00:51:25;;;;;;;40.15;12.68;;;8.60;99.90;;;;;;5012217;28;20105;-33
2022/03/26 00:53:51;;;;;;;27.95;13.75;;;8.60;99.90;;;;;;5012699;28;20030;-32
2022/03/26 00:56:17;;;;;;;29.65;11.52;;;8.60;99.90;;;;;;5011459;28;20030;-29
2022/03/26 00:58:43;;;;;;;33.45;12.05;;;8.60;99.90;;;;;;5004449;28;20030;-37
2022/03/26 01:01:10;;;;;;;28.80;11.88;;;8.60;99.90;;;;;;5004171;28;20026;-31
2022/03/26 01:03:36;;;;;;;34.50;12.13;;;8.50;99.90;;;;;;5006805;28;20121;-31
2022/03/26 01:06:03;;;;;;;24.45;11.27;;;8.60;99.90;;;;;;5004236;28;20452;-32
2022/03/26 01:08:29;;;;;;;31.23;12.23;;;8.50;99.90;;;;;;5003589;28;20033;-33
2022/03/26 01:10:55;;;;;;;30.33;11.73;;;8.50;99.90;;;;;;5009490;28;20272;-37
2022/03/26 01:13:21;;;;;;;32.53;12.82;;;8.50;99.90;;;;;;5012660;28;20108;-38
2022/03/26 01:15:47;;;;;;;27.75;11.40;;;8.40;99.90;;;;;;5011888;28;20132;-38
2022/03/26 01:18:13;;;;;;;30.95;12.40;;;8.50;99.90;;;;;;5009205;28;20439;-53
2022/03/26 01:20:38;;;;;;;30.73;12.70;;;8.50;99.90;;;;;;5012699;28;20105;-39
2022/03/26 01:23:04;;;;;;;34.55;10.85;;;8.40;99.90;;;;;;5010352;28;20109;-43
2022/03/26 01:25:29;;;;;;;31.60;11.30;;;8.40;99.90;;;;;;5015124;28;20109;-37
2022/03/26 01:27:55;;;;;;;30.63;10.25;;;8.30;99.90;;;;;;5015770;28;20478;-35
2022/03/26 01:30:21;;;;;;;25.40;11.23;;;8.30;99.90;;;;;;5014330;28;20101;-32
2022/03/26 01:32:47;;;;;;;27.45;10.80;;;8.30;99.90;;;;;;5009386;28;20474;-33
2022/03/26 01:35:13;;;;;;;23.98;10.63;;;8.30;99.90;;;;;;5014693;28;20026;-37
2022/03/26 01:37:39;;;;;;;31.42;11.57;;;8.20;99.90;;;;;;5007347;28;20034;-29
2022/03/26 01:40:06;;;;;;;31.60;11.02;;;8.30;99.90;;;;;;5015485;28;20072;-31
2022/03/26 01:42:32;;;;;;;28.53;11.13;;;8.20;99.90;;;;;;5015516;28;20034;-29
2022/03/26 01:44:58;;;;;;;30.00;11.70;;;8.20;99.90;;;;;;5015444;28;20092;-32
2022/03/26 01:47:23;;;;;;;31.48;12.13;;;8.10;99.90;;;;;;5015248;28;20050;-32
2022/03/26 01:49:51;;;;;;;21.60;10.48;;;8.10;99.90;;;;;;5015854;28;20049;-28
2022/03/26 01:52:17;;;;;;;32.92;11.25;;;8.10;99.90;;;;;;4998436;28;20462;-47
2022/03/26 01:54:43;;;;;;;35.28;11.65;;;8.10;99.90;;;;;;5015440;28;20385;-36
2022/03/26 01:57:12;;;;;;;32.47;10.77;;;8.10;99.90;;;;;;5008750;28;20029;-38
2022/03/26 01:59:39;;;;;;;26.10;11.27;;;8.10;99.90;;;;;;5010927;28;20453;-38
2022/03/26 02:02:06;;;;;;;33.35;11.63;;;8.00;99.90;;;;;;4998049;28;20528;-38
2022/03/26 02:04:34;;;;;;;26.90;10.40;;;8.00;99.90;;;;;;4997167;28;20034;-37
2022/03/26 02:07:04;;;;;;;30.10;11.32;;;8.00;99.90;;;;;;5014803;28;20033;-35
2022/03/26 02:09:35;;;;;;;37.13;11.52;;;7.90;99.90;;;;;;5015189;28;20022;-37
2022/03/26 02:12:21;;;;;;;32.40;10.88;;;7.90;99.90;;;;;;5015396;28;20026;-37
2022/03/26 02:14:47;;;;;;;32.47;11.25;;;7.90;99.90;;;;;;4997380;28;20068;-38
2022/03/26 02:17:12;;;;;;;31.52;11.55;;;7.90;99.90;;;;;;5015033;28;20391;-36
2022/03/26 02:19:38;;;;;;;30.00;10.95;;;7.80;99.90;;;;;;4997749;28;20029;-44
2022/03/26 02:22:04;;;;;;;33.00;12.65;;;7.80;99.90;;;;;;4996760;28;20117;-35
2022/03/26 02:24:30;;;;;;;30.40;11.00;;;7.80;99.90;;;;;;5015181;28;20076;-41
2022/03/26 02:26:56;;;;;;;36.47;13.35;;;7.90;99.90;;;;;;5015127;28;20423;-53
2022/03/26 02:29:21;;;;;;;36.90;11.93;;;7.90;99.90;;;;;;4996742;28;20129;-38
2022/03/26 02:31:47;;;;;;;30.23;10.80;;;7.80;99.90;;;;;;5015182;28;20011;-38
2022/03/26 02:34:12;;;;;;;32.40;11.40;;;7.80;99.90;;;;;;4997111;28;20084;-39
2022/03/26 02:36:38;;;;;;;33.17;11.93;;;7.70;99.90;;;;;;4996566;28;20034;-42
2022/03/26 02:39:05;;;;;;;34.45;12.52;;;7.80;99.90;;;;;;5012933;28;20038;-37
2022/03/26 02:41:33;;;;;;;27.98;10.68;;;7.70;99.90;;;;;;4997473;28;20018;-39
2022/03/26 02:43:58;;;;;;;29.70;12.32;;;7.70;99.90;;;;;;5014834;28;20389;-37
2022/03/26 02:46:24;;;;;;;31.85;12.15;;;7.70;99.90;;;;;;5014413;28;20022;-37
2022/03/26 02:48:50;;;;;;;31.85;12.18;;;7.70;99.90;;;;;;5014363;28;20264;-38
2022/03/26 02:51:15;;;;;;;36.63;12.43;;;7.70;99.90;;;;;;5014750;28;20478;-38
2022/03/26 02:53:41;;;;;;;29.42;11.50;;;7.60;99.90;;;;;;5014797;28;20018;-39
2022/03/26 02:56:07;;;;;;;27.83;12.00;;;7.60;99.90;;;;;;4996685;28;20033;-37
2022/03/26 02:58:32;;;;;;;31.55;12.85;;;7.60;99.90;;;;;;5014405;28;20478;-37
2022/03/26 03:00:58;;;;;;;35.80;12.20;;;7.60;99.90;;;;;;5014942;28;20497;-37
2022/03/26 03:03:23;;;;;;;26.52;12.20;;;7.50;99.90;;;;;;5014227;28;20030;-34
2022/03/26 03:05:49;;;;;;;36.67;12.27;;;7.50;99.90;;;;;;5014256;28;20478;-29
2022/03/26 03:08:15;;;;;;;36.45;12.10;;;7.50;99.90;;;;;;5013784;28;20030;-35
2022/03/26 03:10:44;;;;;;;32.88;12.65;;;7.40;99.90;;;;;;5014371;28;20478;-34
2022/03/26 03:13:10;;;;;;;30.05;12.15;;;7.50;99.90;;;;;;5013420;28;20018;-31
2022/03/26 03:15:37;;;;;;;34.30;12.60;;;7.40;99.90;;;;;;5013474;28;20048;-33
2022/03/26 03:18:03;;;;;;;31.48;14.30;;;7.40;99.90;;;;;;5013332;28;20055;-29
2022/03/26 03:20:32;;;;;;;35.72;13.15;;;7.40;99.90;;;;;;5011765;28;20038;-38
2022/03/26 03:22:57;;;;;;;35.75;14.15;;;7.30;99.90;;;;;;4994962;28;20030;-32
2022/03/26 03:25:26;;;;;;;33.50;13.63;;;7.30;99.90;;;;;;4996303;28;20125;-32
2022/03/26 03:27:52;;;;;;;33.67;14.07;;;7.30;99.90;;;;;;5014006;28;20442;-29
2022/03/26 03:30:17;;;;;;;37.00;14.07;;;7.20;99.90;;;;;;5014061;28;20022;-29
2022/03/26 03:32:43;;;;;;;40.50;14.80;;;7.20;99.90;;;;;;5013664;28;20101;-29
2022/03/26 03:35:09;;;;;;;42.42;14.43;;;7.20;99.90;;;;;;5013403;28;20501;-34
2022/03/26 03:37:37;;;;;;;35.38;13.10;;;7.20;99.90;;;;;;5013027;28;20042;-29
2022/03/26 03:40:04;;;;;;;45.22;16.85;;;7.10;99.90;;;;;;5013803;28;20101;-49
2022/03/26 03:42:30;;;;;;;38.57;14.93;;;7.10;99.90;;;;;;5013634;28;20386;-29
2022/03/26 03:44:56;;;;;;;43.15;15.27;;;7.10;99.90;;;;;;5013369;28;20272;-31
2022/03/26 03:47:21;;;;;;;39.33;16.02;;;7.10;99.90;;;;;;5012271;28;20097;-31
2022/03/26 03:49:47;;;;;;;38.60;15.50;;;7.10;99.90;;;;;;5013327;28;20470;-47
2022/03/26 03:52:12;;;;;;;39.65;15.40;;;7.10;99.90;;;;;;5013084;28;20030;-36
2022/03/26 03:54:38;;;;;;;37.25;15.27;;;7.00;99.90;;;;;;5012975;28;20030;-37
2022/03/26 03:57:04;;;;;;;41.38;15.35;;;7.10;99.90;;;;;;5013266;28;20068;-36
2022/03/26 03:59:29;;;;;;;44.53;16.48;;;7.10;99.90;;;;;;5013438;28;20053;-37
2022/03/26 04:01:55;;;;;;;49.67;16.38;;;7.00;99.90;;;;;;5012962;28;20026;-29
2022/03/26 04:04:20;;;;;;;42.25;15.73;;;7.00;99.90;;;;;;5013079;28;20037;-31
2022/03/26 04:06:46;;;;;;;42.63;17.88;;;6.90;99.90;;;;;;5013005;28;20116;-31
2022/03/26 04:09:12;;;;;;;43.92;16.17;;;6.90;99.90;;;;;;5012832;28;20018;-32
2022/03/26 04:11:37;;;;;;;43.42;15.93;;;6.90;99.90;;;;;;5012429;28;20026;-30
2022/03/26 04:14:03;;;;;;;40.17;15.25;;;6.90;99.90;;;;;;5013099;28;20037;-28
2022/03/26 04:16:29;;;;;;;46.25;17.35;;;6.80;99.90;;;;;;5012996;28;20065;-42
2022/03/26 04:18:54;;;;;;;51.15;17.75;;;6.80;99.90;;;;;;5012820;28;20026;-30
2022/03/26 04:21:20;;;;;;;45.55;17.70;;;6.80;99.90;;;;;;5012683;28;20058;-35
2022/03/26 04:23:45;;;;;;;51.28;17.90;;;6.80;99.90;;;;;;5007723;28;20038;-30
2022/03/26 04:26:11;;;;;;;46.33;17.75;;;6.80;99.90;;;;;;5003408;28;20022;-31
2022/03/26 04:28:37;;;;;;;47.50;16.58;;;6.80;99.90;;;;;;5012800;28;20026;-30
2022/03/26 04:31:04;;;;;;;36.72;15.75;;;6.80;99.90;;;;;;5012875;28;20463;-29
2022/03/26 04:33:30;;;;;;;41.92;15.23;;;6.80;99.90;;;;;;5012994;28;20382;-32
2022/03/26 04:35:55;;;;;;;51.38;18.25;;;6.70;99.90;;;;;;5012579;28;20030;-47
2022/03/26 04:38:21;;;;;;;47.30;16.40;;;6.70;99.90;;;;;;5012929;28;20037;-37
2022/03/26 04:40:47;;;;;;;52.17;18.38;;;6.70;99.90;;;;;;5013002;28;20037;-37
2022/03/26 04:43:13;;;;;;;45.10;17.88;;;6.60;99.90;;;;;;5012527;28;20029;-38
2022/03/26 04:45:39;;;;;;;43.78;17.70;;;6.60;99.90;;;;;;5011700;28;20030;-38
2022/03/26 04:48:05;;;;;;;43.15;15.98;;;6.60;99.90;;;;;;4994908;28;20087;-38
2022/03/26 04:50:30;;;;;;;49.33;18.55;;;6.60;99.90;;;;;;5012945;28;20500;-35
2022/03/26 04:52:56;;;;;;;56.50;17.48;;;6.60;99.90;;;;;;5012924;28;20022;-35
2022/03/26 04:55:22;;;;;;;50.20;18.13;;;6.50;99.90;;;;;;5012583;28;20022;-34
2022/03/26 04:57:48;;;;;;;50.35;18.52;;;6.50;99.90;;;;;;5012478;28;20036;-36
2022/03/26 05:00:15;;;;;;;61.40;19.05;;;6.50;99.90;;;;;;4997976;28;20042;-37
2022/03/26 05:02:42;;;;;;;55.07;17.87;;;6.50;99.90;;;;;;5015890;28;20443;-37
2022/03/26 05:05:12;;;;;;;45.08;17.13;;;6.50;99.90;;;;;;5016521;28;20478;-37
2022/03/26 05:07:46;;;;;;;45.83;17.60;;;6.50;99.90;;;;;;5016353;28;20045;-37
2022/03/26 05:10:21;;;;;;;53.42;19.52;;;6.50;99.90;;;;;;5016625;28;20084;-36
2022/03/26 05:12:48;;;;;;;48.20;17.83;;;6.60;99.90;;;;;;5016113;28;20113;-36
2022/03/26 05:15:15;;;;;;;45.17;18.13;;;6.60;99.90;;;;;;5015859;28;20085;-37
2022/03/26 05:17:41;;;;;;;46.15;19.30;;;6.50;99.90;;;;;;5016425;28;20445;-66
2022/03/26 05:20:14;;;;;;;54.47;19.40;;;6.50;99.90;;;;;;5016005;28;20479;-28
2022/03/26 05:22:47;;;;;;;49.30;18.50;;;6.40;99.90;;;;;;5016118;28;20025;-30
2022/03/26 05:25:14;;;;;;;57.47;17.98;;;6.40;99.90;;;;;;4998114;28;20492;-30
2022/03/26 05:27:52;;;;;;;56.05;19.10;;;6.40;99.90;;;;;;5016237;28;20458;-29
2022/03/26 05:30:18;;;;;;;60.65;21.00;;;6.40;99.90;;;;;;5016178;28;20149;-31
2022/03/26 05:32:45;;;;;;;55.60;18.02;;;6.40;99.90;;;;;;5015582;28;20030;-28
2022/03/26 05:35:14;;;;;;;45.65;18.92;;;6.40;99.90;;;;;;5015734;28;20029;-35
2022/03/26 05:37:47;;;;;;;53.97;19.38;;;6.50;99.90;;;;;;5003492;28;20525;-29
2022/03/26 05:40:16;;;;;;;51.92;19.30;;;6.50;99.90;;;;;;5016327;28;20105;-31
2022/03/26 05:42:43;;;;;;;54.08;20.08;;;6.50;99.90;;;;;;5015175;28;20091;-27
2022/03/26 05:45:09;;;;;;;54.90;20.15;;;6.50;99.90;;;;;;5005002;28;20493;-32
2022/03/26 05:47:37;;;;;;;49.55;19.52;;;6.50;99.90;;;;;;5002194;28;20045;-29
2022/03/26 05:50:05;;;;;;;64.93;21.48;;;6.50;99.90;;;;;;4997416;28;20029;-29
2022/03/26 05:52:30;;;;;;;56.15;19.42;;;6.50;99.90;;;;;;5015869;28;20017;-28
2022/03/26 05:54:56;;;;;;;48.80;19.00;;;6.50;99.90;;;;;;5015232;28;20022;-31
2022/03/26 05:57:22;;;;;;;55.35;19.08;;;6.60;99.90;;;;;;5015326;28;20033;-28
2022/03/26 05:59:48;;;;;;;51.65;19.58;;;6.60;99.90;;;;;;5014716;28;20022;-31
2022/03/26 06:02:14;;;;;;;47.75;17.70;;;6.70;99.90;;;;;;5014456;28;20050;-29
2022/03/26 06:04:43;;;;;;;51.25;18.08;;;6.80;99.90;;;;;;5015225;28;20100;-33
2022/03/26 06:07:09;;;;;;;57.45;18.60;;;6.80;99.90;;;;;;5015447;28;20072;-31
2022/03/26 06:09:36;;;;;;;52.17;19.13;;;6.90;99.90;;;;;;5015159;28;20030;-30
2022/03/26 06:12:02;;;;;;;46.50;19.73;;;6.90;99.90;;;;;;4996460;28;20534;-30
2022/03/26 06:14:28;;;;;;;53.03;20.92;;;7.00;99.90;;;;;;5014375;28;20022;-30
2022/03/26 06:16:54;;;;;;;53.10;19.23;;;7.10;99.90;;;;;;5012459;28;20073;-30
2022/03/26 06:19:20;;;;;;;67.50;21.42;;;7.20;99.90;;;;;;5014918;28;20576;-30
2022/03/26 06:21:45;;;;;;;51.75;19.77;;;7.30;99.90;;;;;;5014513;28;20030;-31
2022/03/26 06:24:12;;;;;;;53.25;18.55;;;7.40;99.90;;;;;;5014362;28;20037;-37
2022/03/26 06:26:39;;;;;;;56.33;20.73;;;7.40;99.90;;;;;;5015247;28;20030;-43
2022/03/26 06:29:05;;;;;;;52.63;18.60;;;7.50;99.90;;;;;;5014569;28;20055;-32
2022/03/26 06:31:31;;;;;;;58.30;20.65;;;7.60;99.90;;;;;;5014683;28;20044;-31
2022/03/26 06:33:58;;;;;;;45.75;18.75;;;7.70;99.90;;;;;;5014447;28;20029;-30
2022/03/26 06:36:24;;;;;;;48.45;19.77;;;7.90;99.90;;;;;;5014355;28;20030;-31
2022/03/26 06:38:50;;;;;;;65.47;21.42;;;7.90;99.90;;;;;;5014108;28;20104;-32
2022/03/26 06:41:18;;;;;;;56.30;20.73;;;8.10;99.90;;;;;;5014646;28;20473;-30
2022/03/26 06:43:44;;;;;;;65.75;21.83;;;8.30;99.90;;;;;;5014527;28;20033;-29
2022/03/26 06:46:10;;;;;;;65.78;22.83;;;8.30;99.90;;;;;;5013839;28;20026;-33
2022/03/26 06:48:36;;;;;;;56.92;20.17;;;8.40;99.90;;;;;;5014238;28;20505;-30
2022/03/26 06:51:03;;;;;;;56.72;22.33;;;8.50;99.90;;;;;;5014648;28;20030;-48
2022/03/26 06:53:33;;;;;;;60.83;21.80;;;8.50;99.90;;;;;;5014350;28;20064;-30
2022/03/26 06:55:58;;;;;;;60.45;21.17;;;8.70;99.90;;;;;;5012564;28;20040;-34
2022/03/26 06:58:24;;;;;;;51.53;19.17;;;8.80;99.90;;;;;;4994283;28;20034;-33
2022/03/26 07:00:50;;;;;;;56.08;20.88;;;8.90;99.90;;;;;;5013606;28;20117;-32
2022/03/26 07:03:16;;;;;;;59.28;21.00;;;9.00;99.90;;;;;;5012456;28;20482;-30
2022/03/26 07:05:42;;;;;;;61.42;21.10;;;9.00;99.90;;;;;;5013992;28;20037;-29
2022/03/26 07:08:09;;;;;;;67.60;21.33;;;9.10;99.90;;;;;;5011218;28;20030;-30
2022/03/26 07:10:41;;;;;;;61.88;22.30;;;9.20;99.90;;;;;;5007824;28;20046;-36
2022/03/26 07:13:07;;;;;;;52.78;21.00;;;9.30;99.90;;;;;;5010789;28;20109;-36
2022/03/26 07:15:32;;;;;;;53.03;19.83;;;9.40;99.90;;;;;;5012895;28;20109;-31
2022/03/26 07:17:58;;;;;;;66.60;22.25;;;9.50;99.90;;;;;;5013891;28;20379;-31
2022/03/26 07:20:24;;;;;;;55.10;20.67;;;9.60;99.90;;;;;;5012061;28;20034;-31
2022/03/26 07:22:50;;;;;;;61.95;20.15;;;9.70;99.90;;;;;;5012842;28;20053;-36
2022/03/26 07:25:16;;;;;;;54.78;20.67;;;9.70;99.90;;;;;;5013555;28;20722;-37
2022/03/26 07:27:41;;;;;;;56.03;21.38;;;9.90;99.90;;;;;;5013845;28;20037;-36
2022/03/26 07:30:08;;;;;;;53.92;18.48;;;9.90;99.90;;;;;;5014120;28;20026;-30
2022/03/26 07:32:37;;;;;;;52.10;19.88;;;10.00;99.90;;;;;;5014309;28;20075;-33
2022/03/26 07:35:04;;;;;;;53.30;19.45;;;10.20;99.90;;;;;;5013952;28;20095;-30
2022/03/26 07:37:29;;;;;;;47.97;18.25;;;10.30;99.90;;;;;;5013881;28;20538;-38
2022/03/26 07:39:55;;;;;;;45.67;18.38;;;10.40;99.90;;;;;;4995877;28;20042;-32
2022/03/26 07:42:21;;;;;;;52.90;19.00;;;10.50;99.90;;;;;;5013842;28;20463;-37
2022/03/26 07:44:49;;;;;;;57.45;18.02;;;10.60;99.90;;;;;;5013768;28;20109;-39
2022/03/26 07:47:14;;;;;;;56.05;17.80;;;10.70;99.90;;;;;;5010555;28;20087;-38
2022/03/26 07:49:40;;;;;;;50.80;19.00;;;10.80;99.90;;;;;;5013860;28;20097;-38
2022/03/26 07:52:06;;;;;;;53.55;19.08;;;10.90;99.90;;;;;;5012757;28;20084;-37
2022/03/26 07:54:32;;;;;;;59.35;19.83;;;11.00;99.90;;;;;;5013087;28;20033;-38
2022/03/26 07:56:57;;;;;;;52.05;19.83;;;11.10;99.90;;;;;;4995618;28;20037;-37
2022/03/26 07:59:23;;;;;;;48.67;19.25;;;11.30;99.90;;;;;;5013154;28;20497;-36
2022/03/26 08:01:48;;;;;;;44.20;17.67;;;11.30;99.90;;;;;;5013180;28;20109;-39
2022/03/26 08:04:14;;;;;;;49.65;19.17;;;11.50;99.90;;;;;;5013484;28;20169;-37
2022/03/26 08:06:40;;;;;;;56.20;19.98;;;11.60;99.90;;;;;;5013161;28;20030;-39
2022/03/26 08:09:06;;;;;;;50.95;20.90;;;11.80;99.90;;;;;;5007280;28;20056;-35
2022/03/26 08:11:31;;;;;;;50.85;19.48;;;11.90;99.90;;;;;;5011801;28;20394;-31
2022/03/26 08:13:57;;;;;;;57.20;20.50;;;12.00;99.90;;;;;;4995649;28;20026;-29
2022/03/26 08:16:23;;;;;;;58.22;21.25;;;12.20;99.90;;;;;;4995384;28;20050;-31
2022/03/26 08:18:48;;;;;;;57.53;22.13;;;12.30;99.90;;;;;;5011201;28;20030;-45
2022/03/26 08:21:15;;;;;;;65.38;21.75;;;12.40;99.90;;;;;;5009828;28;20026;-29
2022/03/26 08:23:41;;;;;;;61.75;22.25;;;12.40;99.90;;;;;;5011972;28;20371;-30
2022/03/26 08:26:19;;;;;;;68.47;23.02;;;12.50;99.90;;;;;;5013173;28;20529;-32
2022/03/26 08:28:45;;;;;;;54.10;20.38;;;12.60;99.90;;;;;;5012951;28;20030;-30
2022/03/26 08:31:13;;;;;;;64.53;22.42;;;12.90;99.90;;;;;;5012800;28;20097;-29
2022/03/26 08:33:41;;;;;;;59.55;22.75;;;13.10;99.90;;;;;;5015349;28;20022;-31
2022/03/26 08:36:07;;;;;;;55.47;19.98;;;13.20;99.90;;;;;;5018865;28;20037;-33
2022/03/26 08:38:34;;;;;;;48.90;18.65;;;13.30;99.90;;;;;;5019645;28;20512;-29
2022/03/26 08:41:00;;;;;;;59.22;19.27;;;13.40;99.90;;;;;;5019471;28;20025;-30
2022/03/26 08:43:26;;;;;;;47.35;18.92;;;13.50;99.90;;;;;;5019379;28;20022;-29
2022/03/26 08:45:51;;;;;;;44.97;18.63;;;13.60;99.90;;;;;;5018437;28;20065;-33
2022/03/26 08:48:17;;;;;;;46.40;17.20;;;13.60;99.90;;;;;;5014933;28;20105;-37
2022/03/26 08:50:43;;;;;;;48.05;18.38;;;13.70;99.90;;;;;;5015354;28;20483;-31
2022/03/26 08:53:10;;;;;;;48.60;18.05;;;13.80;99.90;;;;;;5017327;28;20125;-32
2022/03/26 08:55:36;;;;;;;51.33;19.83;;;14.00;99.90;;;;;;4999931;28;20038;-33
2022/03/26 08:58:02;;;;;;;53.13;18.80;;;14.10;99.90;;;;;;5018259;28;20060;-33
2022/03/26 09:00:28;;;;;;;49.83;17.55;;;14.20;99.80;;;;;;5018885;28;20064;-32
2022/03/26 09:02:54;;;;;;;53.08;19.73;;;14.20;99.80;;;;;;5018059;28;20083;-30
2022/03/26 09:05:20;;;;;;;50.05;18.17;;;14.30;99.90;;;;;;5019171;28;20061;-31
2022/03/26 09:07:46;;;;;;;48.28;19.25;;;14.40;99.90;;;;;;5019121;28;20441;-30
2022/03/26 09:10:12;;;;;;;43.78;17.55;;;14.60;99.90;;;;;;5019542;28;20018;-33
2022/03/26 09:12:38;;;;;;;39.58;16.20;;;14.80;99.30;;;;;;5018481;28;20033;-31
2022/03/26 09:15:07;;;;;;;43.28;17.20;;;15.00;99.30;;;;;;5018572;28;20046;-36
2022/03/26 09:17:33;;;;;;;47.10;16.90;;;15.10;99.00;;;;;;5019509;28;20033;-39
2022/03/26 09:19:59;;;;;;;42.17;16.58;;;15.20;98.80;;;;;;5018801;28;20485;-33
2022/03/26 09:22:24;;;;;;;43.47;17.00;;;15.20;98.60;;;;;;5017970;28;20214;-29
2022/03/26 09:24:51;;;;;;;44.97;15.95;;;15.30;98.40;;;;;;5018037;28;20034;-29
2022/03/26 09:27:17;;;;;;;33.85;14.15;;;15.30;98.70;;;;;;5019184;28;20034;-32
2022/03/26 09:29:44;;;;;;;35.40;14.52;;;15.30;98.10;;;;;;4999750;28;20049;-29
2022/03/26 09:32:11;;;;;;;41.30;15.15;;;15.40;98.20;;;;;;5016323;28;20072;-32
2022/03/26 09:34:36;;;;;;;34.67;14.07;;;15.60;97.90;;;;;;5017559;28;20038;-31
2022/03/26 09:37:03;;;;;;;42.42;14.95;;;15.70;97.90;;;;;;4999851;28;20034;-33
2022/03/26 09:39:29;;;;;;;42.85;12.85;;;15.80;97.90;;;;;;5019104;28;20030;-33
2022/03/26 09:41:57;;;;;;;37.45;13.85;;;15.80;97.90;;;;;;5018853;28;20522;-29
2022/03/26 09:44:23;;;;;;;30.23;12.23;;;15.90;97.40;;;;;;5018647;28;20030;-32
2022/03/26 09:46:49;;;;;;;36.42;13.73;;;15.90;97.40;;;;;;5015823;28;20033;-30
2022/03/26 09:49:14;;;;;;;26.35;11.10;;;16.00;97.10;;;;;;5015907;28;20025;-32
2022/03/26 09:51:41;;;;;;;30.92;12.05;;;16.10;96.60;;;;;;5015839;28;20371;-29
2022/03/26 09:54:08;;;;;;;30.55;12.32;;;16.30;96.30;;;;;;4996776;28;20061;-31
2022/03/26 09:56:34;;;;;;;28.00;10.53;;;16.30;96.10;;;;;;5015756;28;20026;-29
2022/03/26 09:59:00;;;;;;;38.85;13.60;;;16.30;96.50;;;;;;5012577;28;20135;-31
2022/03/26 10:01:26;;;;;;;31.10;14.30;;;16.20;96.30;;;;;;5015402;28;20057;-29
2022/03/26 10:04:06;;;;;;;35.28;13.27;;;16.30;96.20;;;;;;5013346;28;20080;-32
2022/03/26 10:06:32;;;;;;;31.33;13.50;;;16.40;96.50;;;;;;4981378;28;20533;-32
2022/03/26 10:08:58;;;;;;;40.47;15.07;;;16.50;96.20;;;;;;5013028;28;20101;-39
2022/03/26 10:11:26;;;;;;;39.15;14.95;;;16.70;96.00;;;;;;5015611;28;20014;-32
2022/03/26 10:13:52;;;;;;;37.42;15.27;;;16.60;95.90;;;;;;5015211;28;20474;-34
2022/03/26 10:16:19;;;;;;;42.42;15.07;;;16.70;96.10;;;;;;5015183;28;20068;-31
2022/03/26 10:18:46;;;;;;;34.58;14.15;;;16.80;95.50;;;;;;5014930;28;20107;-33
2022/03/26 10:21:20;;;;;;;38.42;14.50;;;16.90;95.30;;;;;;5015030;28;20030;-31
2022/03/26 10:23:47;;;;;;;39.70;16.05;;;17.10;95.20;;;;;;5012569;28;20544;-31
2022/03/26 10:26:19;;;;;;;40.70;14.45;;;17.00;95.00;;;;;;5009665;28;20034;-38
2022/03/26 10:28:58;;;;;;;32.75;13.60;;;17.00;94.80;;;;;;5007394;28;20386;-37
2022/03/26 10:34:16;;;;;;;33.85;14.63;;;17.20;94.60;;;;;;5008973;28;20048;-29
2022/03/26 10:36:47;;;;;;;44.28;16.00;;;17.40;94.60;;;;;;5009825;28;20034;-32
2022/03/26 10:39:20;;;;;;;46.10;16.65;;;17.40;94.40;;;;;;5002589;28;20498;-40
2022/03/26 10:41:47;;;;;;;47.13;17.85;;;17.50;94.50;;;;;;5012103;28;20377;-47
2022/03/26 10:44:16;;;;;;;33.07;12.93;;;17.60;94.10;;;;;;5013835;28;20022;-32
2022/03/26 10:46:52;;;;;;;46.65;16.48;;;17.70;94.50;;;;;;5013045;28;20026;-32
2022/03/26 10:49:37;;;;;;;40.35;15.70;;;17.60;94.50;;;;;;5013551;28;20458;-35
2022/03/26 10:52:14;;;;;;;47.70;16.17;;;17.80;93.30;;;;;;5014461;28;20022;-39
2022/03/26 10:54:40;;;;;;;50.40;17.98;;;17.90;93.00;;;;;;4995111;28;20505;-38
2022/03/26 10:57:06;;;;;;;47.85;18.55;;;17.70;93.10;;;;;;5012846;28;20026;-47
2022/03/26 10:59:32;;;;;;;45.92;17.50;;;17.80;93.30;;;;;;5014451;28;20040;-31
2022/03/26 11:01:58;;;;;;;43.35;18.48;;;17.90;93.10;;;;;;5011742;28;20109;-29
2022/03/26 11:04:26;;;;;;;48.50;18.38;;;17.80;93.60;;;;;;5014273;28;20033;-36
2022/03/26 11:06:52;;;;;;;50.47;19.42;;;17.70;93.20;;;;;;5014212;28;20108;-36
2022/03/26 11:09:19;;;;;;;55.75;19.55;;;17.70;93.70;;;;;;5013408;28;20025;-30
2022/03/26 11:11:45;;;;;;;42.95;18.27;;;17.90;94.00;;;;;;4995281;28;20049;-29
2022/03/26 11:14:33;;;;;;;51.45;19.00;;;17.90;93.10;;;;;;5014570;28;20022;-30
2022/03/26 11:17:29;;;;;;;48.70;19.05;;;18.20;93.00;;;;;;5012425;28;20458;-43
2022/03/26 11:20:21;;;;;;;48.20;17.52;;;18.20;92.90;;;;;;5013928;28;20398;-32
2022/03/26 11:23:05;;;;;;;52.30;21.13;;;18.30;92.80;;;;;;4996047;28;20401;-31
2022/03/26 11:25:52;;;;;;;43.00;16.50;;;18.20;93.50;;;;;;5014359;28;20038;-32
2022/03/26 11:28:58;;;;;;;57.50;21.20;;;18.40;92.50;;;;;;5014193;28;20363;-31
2022/03/26 11:32:01;;;;;;;41.08;16.92;;;18.40;93.50;;;;;;5009856;28;20088;-32
2022/03/26 11:34:32;;;;;;;49.65;15.30;;;18.40;93.20;;;;;;5013775;28;20041;-31
2022/03/26 11:37:14;;;;;;;41.08;15.70;;;18.50;92.30;;;;;;5013622;28;20017;-35
2022/03/26 11:39:48;;;;;;;45.55;16.55;;;18.60;92.50;;;;;;5014165;28;20030;-34
2022/03/26 11:42:14;;;;;;;42.85;15.75;;;18.70;93.20;;;;;;5013745;28;20030;-48
2022/03/26 11:50:41;;;;;;;38.60;15.70;;;18.80;92.60;;;;;;5013955;28;20026;-38
2022/03/26 11:53:08;;;;;;;55.80;20.10;;;19.00;92.30;;;;;;5011052;28;20072;-38
2022/03/26 11:55:47;;;;;;;56.53;19.48;;;19.00;93.00;;;;;;5012807;28;20203;-34
2022/03/26 11:58:20;;;;;;;49.55;18.13;;;19.00;92.70;;;;;;5002670;28;20018;-38
2022/03/26 12:01:15;;;;;;;37.60;14.90;;;19.10;93.20;;;;;;5010450;28;20060;-37
2022/03/26 12:03:42;;;;;;;39.13;16.30;;;19.10;91.90;;;;;;5005776;28;20041;-41
2022/03/26 12:08:57;;;;;;;50.65;19.02;;;19.30;92.30;;;;;;5007506;28;20041;-45
2022/03/26 12:11:27;;;;;;;37.50;14.77;;;19.30;92.50;;;;;;4993678;28;20065;-40
2022/03/26 12:14:03;;;;;;;30.60;13.07;;;19.40;91.80;;;;;;5011620;28;20018;-40
2022/03/26 12:16:50;;;;;;;31.85;12.25;;;19.40;91.00;;;;;;5012858;28;20498;-40
2022/03/26 12:19:35;;;;;;;31.85;12.10;;;19.20;90.80;;;;;;5002071;28;20042;-40
2022/03/26 12:22:20;;;;;;;33.05;11.82;;;19.10;90.50;;;;;;5012269;28;20022;-39
2022/03/26 12:24:46;;;;;;;31.85;10.40;;;19.30;90.30;;;;;;4995808;28;20458;-39
2022/03/26 12:27:13;;;;;;;30.00;11.80;;;19.30;91.00;;;;;;5013553;28;20382;-39
2022/03/26 12:29:39;;;;;;;32.45;12.45;;;19.30;91.30;;;;;;5013257;28;20340;-40
2022/03/26 12:32:05;;;;;;;28.23;11.98;;;19.50;90.40;;;;;;4995513;28;20109;-38
2022/03/26 12:34:31;;;;;;;25.02;10.60;;;19.70;90.30;;;;;;5013478;28;20126;-50
2022/03/26 12:37:02;;;;;;;23.13;8.55;;;19.60;90.20;;;;;;5013027;28;20112;-39
2022/03/26 12:39:28;;;;;;;26.73;10.18;;;19.50;90.10;;;;;;5012941;28;20440;-40
2022/03/26 12:41:57;;;;;;;25.65;10.85;;;19.60;90.10;;;;;;5012951;28;20033;-38
2022/03/26 12:44:23;;;;;;;23.23;10.50;;;19.60;90.10;;;;;;5013251;28;20520;-38
2022/03/26 12:46:55;;;;;;;19.95;9.30;;;19.60;90.30;;;;;;5012651;28;20065;-36